createdAt,value
2018-09-11T00:02:20.105Z,2.30
2018-09-11T00:04:49.324Z,2.17
2018-09-11T00:07:18.460Z,2.10
2018-09-11T00:09:47.636Z,2.62
2018-09-11T00:12:16.878Z,2.00
2018-09-11T00:14:46.588Z,2.35
2018-09-11T00:17:15.694Z,2.27
2018-09-11T00:19:45.041Z,2.05
2018-09-11T00:22:14.524Z,2.13
2018-09-11T00:24:43.230Z,2.20
2018-09-11T00:27:12.060Z,2.30
2018-09-11T00:29:40.847Z,1.97
2018-09-11T00:32:09.569Z,1.85
2018-09-11T00:34:38.727Z,1.50
2018-09-11T00:37:07.961Z,1.62
2018-09-11T00:39:36.941Z,1.80
2018-09-11T00:42:05.869Z,1.73
2018-09-11T00:44:34.625Z,1.80
2018-09-11T00:47:03.466Z,1.55
2018-09-11T00:49:32.468Z,1.92
2018-09-11T00:52:01.294Z,1.70
2018-09-11T00:54:30.269Z,1.35
2018-09-11T00:56:59.232Z,1.60
2018-09-11T00:59:28.119Z,1.98
2018-09-11T01:01:56.974Z,1.90
2018-09-11T01:04:25.814Z,1.45
2018-09-11T01:06:54.717Z,1.70
2018-09-11T01:09:23.650Z,1.47
2018-09-11T01:11:52.408Z,1.47
2018-09-11T01:14:21.776Z,1.50
2018-09-11T01:16:50.794Z,1.27
2018-09-11T01:19:19.542Z,1.30
2018-09-11T01:21:48.418Z,1.33
2018-09-11T01:24:17.242Z,1.40
2018-09-11T01:26:46.210Z,1.50
2018-09-11T01:29:14.946Z,1.20
2018-09-11T01:31:43.818Z,1.37
2018-09-11T01:34:12.548Z,1.30
2018-09-11T01:36:41.501Z,1.10
2018-09-11T01:39:12.266Z,1.37
2018-09-11T01:41:41.238Z,1.20
2018-09-11T01:44:10.538Z,1.30
2018-09-11T01:46:39.345Z,1.50
2018-09-11T01:49:08.194Z,1.07
2018-09-11T01:51:37.018Z,1.20
2018-09-11T01:54:05.873Z,1.27
2018-09-11T01:56:34.617Z,1.40
2018-09-11T01:59:03.380Z,1.20
2018-09-11T02:01:32.351Z,1.30
2018-09-11T02:04:01.210Z,1.00
2018-09-11T02:06:30.133Z,1.35
2018-09-11T02:08:59.111Z,1.40
2018-09-11T02:11:27.972Z,1.27
2018-09-11T02:13:57.024Z,1.30
2018-09-11T02:16:25.956Z,1.30
2018-09-11T02:18:54.953Z,1.10
2018-09-11T02:21:23.874Z,1.13
2018-09-11T02:23:52.641Z,1.20
2018-09-11T02:26:21.573Z,1.40
2018-09-11T02:28:50.462Z,1.10
2018-09-11T02:31:19.258Z,1.20
2018-09-11T02:33:48.126Z,1.30
2018-09-11T02:36:17.066Z,1.10
2018-09-11T02:38:45.833Z,1.30
2018-09-11T02:41:14.562Z,1.23
2018-09-11T02:43:43.369Z,1.45
2018-09-11T02:46:12.325Z,1.22
2018-09-11T02:48:41.350Z,1.50
2018-09-11T02:51:10.305Z,1.22
2018-09-11T02:53:39.278Z,1.20
2018-09-11T02:56:08.362Z,1.12
2018-09-11T02:58:37.245Z,1.22
2018-09-11T03:01:06.280Z,1.40
2018-09-11T03:03:35.305Z,1.30
2018-09-11T03:06:04.805Z,1.20
2018-09-11T03:08:33.826Z,1.50
2018-09-11T03:11:02.798Z,1.40
2018-09-11T03:13:31.838Z,1.10
2018-09-11T03:16:00.670Z,1.30
2018-09-11T03:18:29.642Z,1.20
2018-09-11T03:20:58.618Z,1.17
2018-09-11T03:23:27.658Z,1.02
2018-09-11T03:25:56.650Z,1.35
2018-09-11T03:28:25.782Z,1.22
2018-09-11T03:30:54.841Z,1.45
2018-09-11T03:33:23.892Z,1.20
2018-09-11T03:35:54.022Z,1.42
2018-09-11T03:38:23.038Z,1.50
2018-09-11T03:40:52.171Z,1.40
2018-09-11T03:43:21.142Z,1.30
2018-09-11T03:45:51.533Z,1.20
2018-09-11T03:48:21.670Z,1.40
2018-09-11T03:50:51.694Z,1.15
2018-09-11T03:53:20.745Z,1.17
2018-09-11T03:55:49.621Z,1.37
2018-09-11T03:58:19.103Z,1.10
2018-09-11T04:00:48.025Z,1.10
2018-09-11T04:03:17.060Z,1.30
2018-09-11T04:05:46.040Z,1.00
2018-09-11T04:08:15.075Z,1.10
2018-09-11T04:10:44.042Z,1.02
2018-09-11T04:13:13.033Z,1.60
2018-09-11T04:15:42.054Z,1.30
2018-09-11T04:18:11.066Z,1.10
2018-09-11T04:20:40.166Z,1.22
2018-09-11T04:23:09.261Z,1.40
2018-09-11T04:25:38.261Z,1.15
2018-09-11T04:28:07.190Z,1.50
2018-09-11T04:30:36.193Z,1.20
2018-09-11T04:33:05.098Z,1.20
2018-09-11T04:35:34.146Z,1.50
2018-09-11T04:38:03.133Z,1.30
2018-09-11T04:40:32.146Z,1.30
2018-09-11T04:43:01.227Z,1.30
2018-09-11T04:45:30.254Z,1.50
2018-09-11T04:47:59.234Z,1.35
2018-09-11T04:50:28.258Z,1.40
2018-09-11T04:52:57.273Z,1.25
2018-09-11T04:55:26.278Z,1.40
2018-09-11T04:57:55.273Z,1.30
2018-09-11T05:00:24.388Z,1.10
2018-09-11T05:02:53.440Z,1.22
2018-09-11T05:05:22.408Z,1.30
2018-09-11T05:07:52.036Z,1.22
2018-09-11T05:10:21.034Z,1.10
2018-09-11T05:12:49.901Z,1.27
2018-09-11T05:15:18.933Z,1.30
2018-09-11T05:17:48.184Z,1.10
2018-09-11T05:20:17.165Z,1.45
2018-09-11T05:22:46.237Z,1.20
2018-09-11T05:25:15.242Z,1.37
2018-09-11T05:27:44.262Z,1.30
2018-09-11T05:30:13.164Z,1.30
2018-09-11T05:32:42.081Z,1.27
2018-09-11T05:35:11.053Z,1.40
2018-09-11T05:37:40.113Z,1.20
2018-09-11T05:40:09.158Z,1.30
2018-09-11T05:42:38.205Z,1.22
2018-09-11T05:45:07.488Z,1.00
2018-09-11T05:47:36.569Z,1.40
2018-09-11T05:50:05.701Z,1.40
2018-09-11T05:52:34.738Z,1.10
2018-09-11T05:55:03.782Z,1.20
2018-09-11T05:57:32.950Z,1.10
2018-09-11T06:00:01.948Z,1.25
2018-09-11T06:02:31.133Z,1.10
2018-09-11T06:05:00.247Z,1.20
2018-09-11T06:07:29.313Z,1.00
2018-09-11T06:09:58.256Z,1.10
2018-09-11T06:12:27.303Z,1.00
2018-09-11T06:14:56.229Z,1.20
2018-09-11T06:17:25.205Z,1.20
2018-09-11T06:19:54.134Z,1.10
2018-09-11T06:22:23.166Z,1.10
2018-09-11T06:24:52.119Z,1.10
2018-09-11T06:27:21.122Z,1.33
2018-09-11T06:29:50.090Z,1.30
2018-09-11T06:32:19.027Z,1.20
2018-09-11T06:34:48.107Z,1.17
2018-09-11T06:37:17.138Z,1.10
2018-09-11T06:39:46.124Z,1.17
2018-09-11T06:42:15.046Z,1.27
2018-09-11T06:44:44.093Z,1.30
2018-09-11T06:47:13.158Z,0.93
2018-09-11T06:49:42.136Z,1.10
2018-09-11T06:52:11.173Z,1.10
2018-09-11T06:54:40.402Z,1.07
2018-09-11T06:57:09.448Z,1.30
2018-09-11T06:59:38.324Z,1.10
2018-09-11T07:02:07.486Z,1.10
2018-09-11T07:04:36.370Z,1.00
2018-09-11T07:07:05.518Z,1.27
2018-09-11T07:09:34.481Z,1.00
2018-09-11T07:12:03.417Z,1.10
2018-09-11T07:14:32.449Z,1.20
2018-09-11T07:17:01.424Z,1.00
2018-09-11T07:19:30.561Z,0.95
2018-09-11T07:21:59.418Z,0.78
2018-09-11T07:24:28.387Z,1.07
2018-09-11T07:26:57.361Z,0.90
2018-09-11T07:29:26.394Z,1.20
2018-09-11T07:31:55.250Z,1.00
2018-09-11T07:34:24.342Z,1.02
2018-09-11T07:36:53.369Z,0.75
2018-09-11T07:39:22.145Z,0.90
2018-09-11T07:41:51.230Z,0.80
2018-09-11T07:44:20.164Z,1.02
2018-09-11T07:46:49.190Z,1.10
2018-09-11T07:49:18.170Z,0.98
2018-09-11T07:51:47.146Z,1.00
2018-09-11T07:54:17.189Z,0.90
2018-09-11T07:56:46.243Z,0.90
2018-09-11T07:59:15.168Z,0.78
2018-09-11T08:01:44.150Z,0.90
2018-09-11T08:04:13.117Z,1.20
2018-09-11T08:06:42.046Z,0.83
2018-09-11T08:09:12.611Z,0.93
2018-09-11T08:11:41.553Z,0.80
2018-09-11T08:14:10.697Z,0.80
2018-09-11T08:16:39.745Z,0.85
2018-09-11T08:19:08.677Z,0.80
2018-09-11T08:21:37.743Z,0.80
2018-09-11T08:24:06.909Z,0.70
2018-09-11T08:26:36.061Z,0.80
2018-09-11T08:29:05.014Z,0.93
2018-09-11T08:31:34.161Z,0.78
2018-09-11T08:34:03.293Z,0.60
2018-09-11T08:36:32.274Z,0.90
2018-09-11T08:39:01.392Z,0.70
2018-09-11T08:41:30.394Z,0.53
2018-09-11T08:43:59.366Z,0.70
2018-09-11T08:46:28.583Z,0.72
2018-09-11T08:48:57.585Z,0.60
2018-09-11T08:51:26.634Z,0.60
2018-09-11T08:53:55.585Z,0.67
2018-09-11T08:56:24.630Z,0.70
2018-09-11T08:58:53.603Z,0.72
2018-09-11T09:01:24.628Z,0.78
2018-09-11T09:03:53.673Z,0.82
2018-09-11T09:06:22.682Z,0.80
2018-09-11T09:08:52.482Z,0.62
2018-09-11T09:11:21.622Z,0.90
2018-09-11T09:13:50.594Z,0.78
2018-09-11T09:16:19.973Z,0.82
2018-09-11T09:18:49.193Z,0.60
2018-09-11T09:21:18.129Z,0.60
2018-09-11T09:23:47.069Z,0.98
2018-09-11T09:26:16.029Z,0.88
2018-09-11T09:28:45.185Z,0.72
2018-09-11T09:31:14.142Z,0.70
2018-09-11T09:33:43.082Z,0.80
2018-09-11T09:36:12.058Z,0.85
2018-09-11T09:38:41.097Z,0.68
2018-09-11T09:41:10.072Z,0.72
2018-09-11T09:43:39.106Z,0.98
2018-09-11T09:46:08.231Z,0.88
2018-09-11T09:48:37.117Z,0.80
2018-09-11T09:51:06.294Z,0.70
2018-09-11T09:53:35.330Z,0.70
2018-09-11T09:56:04.407Z,0.68
2018-09-11T09:58:33.445Z,0.80
2018-09-11T10:01:07.598Z,0.70
2018-09-11T10:03:36.578Z,0.80
2018-09-11T10:06:05.550Z,0.70
2018-09-11T10:08:34.840Z,0.80
2018-09-11T10:11:03.770Z,0.57
2018-09-11T10:13:32.809Z,0.70
2018-09-11T10:16:01.782Z,0.72
2018-09-11T10:18:30.794Z,0.80
2018-09-11T10:20:59.795Z,0.80
2018-09-11T10:23:28.826Z,0.80
2018-09-11T10:25:57.797Z,0.70
2018-09-11T10:28:27.487Z,0.90
2018-09-11T10:30:56.635Z,0.70
2018-09-11T10:33:25.668Z,0.68
2018-09-11T10:35:54.645Z,0.80
2018-09-11T10:38:23.690Z,0.80
2018-09-11T10:40:52.654Z,0.60
2018-09-11T10:43:21.794Z,0.70
2018-09-11T10:45:50.751Z,0.65
2018-09-11T10:48:19.759Z,0.75
2018-09-11T10:50:48.670Z,0.78
2018-09-11T10:53:17.866Z,0.90
2018-09-11T10:55:47.003Z,0.78
2018-09-11T10:58:16.174Z,0.78
2018-09-11T11:00:45.106Z,0.75
2018-09-11T11:03:14.147Z,0.80
2018-09-11T11:05:43.118Z,0.85
2018-09-11T11:08:12.260Z,0.90
2018-09-11T11:10:41.285Z,0.90
2018-09-11T11:13:10.271Z,0.80
2018-09-11T11:15:39.259Z,0.70
2018-09-11T11:18:08.422Z,0.95
2018-09-11T11:20:37.375Z,0.80
2018-09-11T11:23:06.756Z,1.00
2018-09-11T11:25:35.785Z,0.83
2018-09-11T11:28:04.822Z,0.83
2018-09-11T11:30:33.822Z,0.80
2018-09-11T11:33:02.817Z,1.00
2018-09-11T11:35:31.898Z,1.00
2018-09-11T11:38:01.043Z,0.95
2018-09-11T11:40:30.022Z,0.75
2018-09-11T11:42:59.048Z,0.88
2018-09-11T11:45:28.093Z,1.17
2018-09-11T11:47:57.286Z,1.07
2018-09-11T11:50:26.242Z,1.00
2018-09-11T11:52:55.501Z,0.90
2018-09-11T11:55:24.563Z,0.90
2018-09-11T11:57:53.501Z,0.80
2018-09-11T12:00:22.530Z,0.90
2018-09-11T12:02:51.345Z,0.97
2018-09-11T12:05:20.288Z,0.90
2018-09-11T12:07:49.321Z,1.10
2018-09-11T12:10:18.304Z,0.80
2018-09-11T12:12:47.328Z,1.10
2018-09-11T12:15:16.297Z,1.10
2018-09-11T12:17:45.435Z,0.90
2018-09-11T12:20:14.431Z,0.90
2018-09-11T12:22:43.446Z,0.90
2018-09-11T12:25:12.419Z,1.00
2018-09-11T12:27:41.354Z,1.00
2018-09-11T12:30:10.535Z,1.00
2018-09-11T12:32:39.571Z,0.90
2018-09-11T12:35:08.617Z,0.90
2018-09-11T12:37:38.837Z,0.90
2018-09-11T12:40:07.711Z,1.00
2018-09-11T12:42:36.759Z,0.90
2018-09-11T12:45:05.801Z,0.90
2018-09-11T12:47:35.086Z,1.10
2018-09-11T12:50:03.806Z,1.00
2018-09-11T12:52:32.681Z,0.80
2018-09-11T12:55:01.636Z,0.80
2018-09-11T12:57:30.665Z,0.90
2018-09-11T12:59:59.638Z,0.93
2018-09-11T13:02:28.726Z,0.93
2018-09-11T13:04:57.843Z,0.88
2018-09-11T13:07:26.710Z,1.00
2018-09-11T13:09:55.561Z,0.95
2018-09-11T13:12:24.530Z,1.05
2018-09-11T13:14:53.512Z,1.05
2018-09-11T13:17:22.481Z,0.95
2018-09-11T13:19:51.562Z,0.90
2018-09-11T13:22:20.575Z,1.00
2018-09-11T13:24:49.609Z,1.13
2018-09-11T13:27:18.597Z,0.90
2018-09-11T13:29:47.626Z,0.88
2018-09-11T13:32:16.589Z,0.90
2018-09-11T13:34:45.630Z,0.90
2018-09-11T13:37:14.612Z,0.98
2018-09-11T13:39:43.798Z,0.80
2018-09-11T13:42:12.721Z,1.20
2018-09-11T13:44:41.766Z,0.95
2018-09-11T13:47:10.879Z,1.02
2018-09-11T13:49:39.767Z,1.50
2018-09-11T13:52:08.746Z,0.90
2018-09-11T13:54:37.773Z,1.05
2018-09-11T13:57:07.069Z,1.00
2018-09-11T13:59:36.155Z,1.03
2018-09-11T14:02:05.369Z,0.80
2018-09-11T14:04:34.438Z,0.80
2018-09-11T14:07:03.382Z,0.85
2018-09-11T14:09:32.386Z,1.20
2018-09-11T14:12:01.294Z,0.90
2018-09-11T14:14:30.329Z,0.90
2018-09-11T14:16:59.413Z,1.00
2018-09-11T14:19:28.457Z,1.25
2018-09-11T14:21:57.569Z,1.52
2018-09-11T14:24:26.587Z,1.25
2018-09-11T14:26:55.695Z,0.90
2018-09-11T14:29:24.576Z,0.90
2018-09-11T14:31:53.789Z,0.80
2018-09-11T14:34:22.936Z,0.90
2018-09-11T14:36:52.089Z,0.80
2018-09-11T14:39:21.102Z,1.17
2018-09-11T14:41:50.279Z,0.90
2018-09-11T14:44:19.325Z,1.00
2018-09-11T14:46:48.290Z,0.90
2018-09-11T14:49:17.329Z,1.05
2018-09-11T14:51:46.298Z,1.00
2018-09-11T14:54:15.233Z,1.00
2018-09-11T14:56:44.218Z,1.12
2018-09-11T14:59:13.240Z,1.02
2018-09-11T15:01:42.217Z,1.20
2018-09-11T15:04:11.286Z,1.00
2018-09-11T15:06:40.150Z,1.20
2018-09-11T15:09:10.336Z,1.40
2018-09-11T15:11:39.870Z,1.12
2018-09-11T15:14:09.176Z,1.20
2018-09-11T15:16:38.202Z,0.88
2018-09-11T15:19:07.438Z,1.00
2018-09-11T15:21:36.519Z,1.20
2018-09-11T15:24:05.573Z,1.20
2018-09-11T15:26:34.534Z,0.93
2018-09-11T15:29:03.564Z,0.80
2018-09-11T15:31:32.547Z,1.17
2018-09-11T15:34:01.582Z,1.90
2018-09-11T15:36:30.559Z,1.10
2018-09-11T15:38:59.442Z,0.72
2018-09-11T15:41:28.350Z,1.00
2018-09-11T15:43:57.437Z,1.30
2018-09-11T15:46:26.379Z,1.10
2018-09-11T15:48:55.405Z,1.02
2018-09-11T15:51:24.381Z,0.90
2018-09-11T15:53:53.634Z,0.70
2018-09-11T15:56:22.606Z,0.88
2018-09-11T15:58:51.535Z,0.90
2018-09-11T16:01:20.509Z,1.00
2018-09-11T16:03:49.489Z,1.00
2018-09-11T16:06:18.403Z,0.80
2018-09-11T16:08:47.343Z,0.90
2018-09-11T16:11:16.327Z,0.97
2018-09-11T16:13:45.362Z,0.90
2018-09-11T16:16:14.384Z,1.20
2018-09-11T16:18:43.376Z,1.00
2018-09-11T16:21:12.384Z,0.93
2018-09-11T16:23:41.379Z,0.70
2018-09-11T16:26:10.246Z,0.98
2018-09-11T16:28:39.145Z,1.10
2018-09-11T16:31:09.760Z,1.20
2018-09-11T16:33:38.761Z,1.20
2018-09-11T16:36:07.827Z,1.20
2018-09-11T16:38:36.875Z,1.30
2018-09-11T16:41:05.835Z,1.57
2018-09-11T16:43:34.982Z,1.20
2018-09-11T16:46:03.960Z,0.95
2018-09-11T16:48:32.885Z,0.90
2018-09-11T16:51:01.767Z,0.93
2018-09-11T16:53:30.798Z,1.03
2018-09-11T16:55:59.783Z,1.00
2018-09-11T16:58:28.807Z,0.90
2018-09-11T17:00:57.781Z,1.07
2018-09-11T17:03:26.774Z,1.02
2018-09-11T17:05:55.819Z,0.82
2018-09-11T17:08:24.802Z,1.20
2018-09-11T17:10:53.858Z,1.20
2018-09-11T17:13:22.913Z,1.02
2018-09-11T17:15:52.175Z,0.90
2018-09-11T17:18:21.105Z,1.12
2018-09-11T17:20:50.107Z,1.12
2018-09-11T17:23:19.026Z,1.22
2018-09-11T17:25:47.966Z,1.00
2018-09-11T17:28:16.941Z,1.00
2018-09-11T17:30:45.867Z,1.12
2018-09-11T17:33:14.835Z,1.10
2018-09-11T17:35:43.928Z,1.10
2018-09-11T17:38:13.055Z,0.90
2018-09-11T17:40:42.094Z,1.07
2018-09-11T17:43:11.066Z,0.80
2018-09-11T17:45:40.120Z,1.12
2018-09-11T17:48:09.082Z,1.00
2018-09-11T17:50:38.123Z,1.10
2018-09-11T17:53:06.991Z,1.00
2018-09-11T17:55:36.031Z,1.17
2018-09-11T17:58:05.003Z,1.22
2018-09-11T18:00:34.034Z,1.10
2018-09-11T18:03:03.042Z,1.10
2018-09-11T18:05:32.241Z,1.20
2018-09-11T18:08:01.330Z,1.12
2018-09-11T18:10:30.266Z,1.30
2018-09-11T18:12:59.122Z,1.00
2018-09-11T18:15:28.175Z,1.20
2018-09-11T18:18:02.913Z,1.02
2018-09-11T18:20:31.866Z,1.20
2018-09-11T18:23:00.834Z,1.10
2018-09-11T18:25:30.042Z,1.00
2018-09-11T18:27:59.494Z,1.20
2018-09-11T18:30:28.747Z,1.20
2018-09-11T18:32:58.097Z,1.27
2018-09-11T18:35:27.363Z,1.00
2018-09-11T18:37:56.555Z,1.40
2018-09-11T18:40:25.966Z,1.20
2018-09-11T18:42:54.950Z,1.30
2018-09-11T18:45:24.418Z,1.22
2018-09-11T18:47:53.834Z,1.40
2018-09-11T18:50:22.880Z,1.55
2018-09-11T18:52:51.935Z,1.65
2018-09-11T18:55:20.994Z,1.42
2018-09-11T18:57:49.979Z,1.40
2018-09-11T19:00:23.210Z,1.40
2018-09-11T19:02:52.258Z,1.20
2018-09-11T19:05:21.138Z,1.30
2018-09-11T19:07:50.092Z,1.60
2018-09-11T19:10:19.186Z,1.53
2018-09-11T19:12:49.256Z,1.27
2018-09-11T19:15:18.179Z,1.20
2018-09-11T19:17:47.094Z,1.77
2018-09-11T19:20:16.191Z,1.50
2018-09-11T19:22:45.771Z,1.12
2018-09-11T19:25:14.866Z,1.40
2018-09-11T19:27:44.313Z,1.62
2018-09-11T19:30:13.376Z,1.50
2018-09-11T19:32:42.422Z,1.37
2018-09-11T19:35:11.436Z,1.47
2018-09-11T19:37:40.463Z,1.50
2018-09-11T19:40:09.570Z,1.10
2018-09-11T19:42:39.074Z,1.30
2018-09-11T19:45:08.298Z,1.30
2018-09-11T19:47:37.296Z,1.30
2018-09-11T19:50:06.415Z,1.23
2018-09-11T19:52:35.434Z,1.40
2018-09-11T19:55:04.638Z,1.30
2018-09-11T19:57:33.858Z,1.10
2018-09-11T20:00:02.969Z,1.20
2018-09-11T20:02:32.454Z,1.10
2018-09-11T20:05:01.559Z,1.30
2018-09-11T20:07:30.542Z,1.50
2018-09-11T20:09:59.945Z,1.70
2018-09-11T20:12:29.179Z,1.50
2018-09-11T20:14:58.754Z,1.22
2018-09-11T20:17:28.102Z,1.60
2018-09-11T20:19:57.963Z,1.53
2018-09-11T20:22:27.173Z,1.50
2018-09-11T20:24:56.454Z,1.32
2018-09-11T20:27:25.883Z,1.40
2018-09-11T20:29:55.878Z,1.30
2018-09-11T20:32:26.443Z,1.40
2018-09-11T20:34:56.019Z,1.40
2018-09-11T20:37:25.403Z,1.30
2018-09-11T20:39:54.779Z,1.57
2018-09-11T20:42:24.455Z,1.30
2018-09-11T20:44:54.415Z,1.22
2018-09-11T20:47:23.814Z,1.30
2018-09-11T20:49:53.474Z,1.10
2018-09-11T20:52:22.790Z,1.30
2018-09-11T20:54:52.091Z,1.30
2018-09-11T20:57:21.374Z,1.30
2018-09-11T20:59:50.541Z,1.30
2018-09-11T21:02:20.508Z,1.40
2018-09-11T21:04:49.670Z,1.60
2018-09-11T21:07:18.678Z,1.50
2018-09-11T21:09:47.666Z,1.40
2018-09-11T21:12:16.655Z,1.60
2018-09-11T21:14:45.698Z,1.60
2018-09-11T21:17:14.765Z,1.60
2018-09-11T21:19:43.923Z,1.20
2018-09-11T21:22:12.804Z,1.45
2018-09-11T21:24:42.422Z,1.30
2018-09-11T21:27:11.509Z,1.27
2018-09-11T21:29:40.524Z,1.20
2018-09-11T21:32:09.605Z,1.30
2018-09-11T21:34:38.621Z,1.20
2018-09-11T21:37:07.897Z,1.20
2018-09-11T21:39:36.861Z,1.37
2018-09-11T21:42:05.869Z,1.50
2018-09-11T21:44:34.848Z,1.10
2018-09-11T21:47:03.899Z,1.00
2018-09-11T21:49:32.850Z,1.10
2018-09-11T21:52:02.075Z,1.32
2018-09-11T21:54:31.278Z,1.20
2018-09-11T21:57:00.549Z,1.45
2018-09-11T21:59:29.925Z,1.27
2018-09-11T22:02:02.635Z,1.40
2018-09-11T22:04:31.707Z,1.50
2018-09-11T22:07:00.960Z,1.40
2018-09-11T22:09:30.065Z,1.30
2018-09-11T22:11:59.355Z,1.10
2018-09-11T22:14:28.697Z,1.10
2018-09-11T22:16:58.039Z,1.32
2018-09-11T22:19:27.067Z,1.35
2018-09-11T22:21:56.252Z,1.30
2018-09-11T22:24:25.570Z,1.12
2018-09-11T22:26:55.153Z,1.20
2018-09-11T22:29:24.572Z,1.30
2018-09-11T22:31:54.341Z,1.40
2018-09-11T22:34:23.817Z,1.00
2018-09-11T22:36:53.156Z,1.20
2018-09-11T22:39:22.625Z,1.20
2018-09-11T22:41:52.214Z,0.95
2018-09-11T22:44:21.424Z,1.12
2018-09-11T22:46:50.420Z,1.10
2018-09-11T22:49:19.414Z,1.12
2018-09-11T22:51:48.462Z,1.37
2018-09-11T22:54:17.442Z,1.30
2018-09-11T22:56:46.481Z,1.43
2018-09-11T22:59:15.476Z,1.30
2018-09-11T23:01:44.693Z,1.35
2018-09-11T23:04:13.669Z,1.12
2018-09-11T23:06:42.694Z,1.10
2018-09-11T23:09:11.829Z,1.35
2018-09-11T23:11:40.813Z,1.10
2018-09-11T23:14:09.781Z,1.65
2018-09-11T23:16:38.767Z,1.60
2018-09-11T23:19:07.697Z,1.20
2018-09-11T23:21:36.745Z,1.40
2018-09-11T23:24:05.710Z,1.50
2018-09-11T23:26:34.770Z,1.17
2018-09-11T23:29:03.877Z,1.40
2018-09-11T23:31:33.025Z,1.05
2018-09-11T23:34:02.046Z,1.50
2018-09-11T23:36:31.092Z,1.30
2018-09-11T23:39:00.300Z,1.20
2018-09-11T23:41:29.603Z,1.57
2018-09-11T23:43:58.754Z,1.20
2018-09-11T23:46:28.047Z,1.17
2018-09-11T23:48:57.229Z,1.10
2018-09-11T23:51:26.722Z,1.00
2018-09-11T23:53:55.769Z,1.45
2018-09-11T23:56:25.182Z,1.02
2018-09-11T23:58:54.528Z,1.45
